Agassiz, British Columbia

5:49 AM PDT on August 05, 2015 (GMT -0700)
Little Mountain/Fairfield | | Change Station
CLOSE
Current Station
Personal Weather Station
Location: Chilliwack, BRITISH COLUMBIA
Elevation: 43 ft
Nearby Weather Stations

Elev 43 ft 49.18 °N, 121.93 °W | Updated 10 seconds ago

Scattered Clouds
Scattered Clouds
56.5 °F
Feels Like 56.5 °F
N
0.0
Wind Variable Wind from North
Gusts 0.0 mph

Today
High -- | Low -- °F
--% Chance of Precip.
Yesterday
High -- | Low -- °F
Precip. -- in
5:44 AM 8:40 PM
Waning Gibbous, 67% visible
Pressure 29.99 in
Visibility 9.0 miles
Clouds Scattered Clouds 18000 ft
Scattered Clouds 20000 ft
Dew Point 50 °F
Humidity 78%
Rainfall 0.00 in
Snow Depth Not available.
UV 0 out of 12
Pollen Not available.
Air Quality Not available.
Flu Activity Not available.
METAR CYHE 051200Z AUTO 23007KT 9SM SCT180 SCT200 14/10 A2998 RMK SLP153

More Conditions Fewer Conditions

Pressure 29.99 in
Visibility 9.0 miles
Clouds Scattered Clouds 18000 ft
Scattered Clouds 20000 ft
Dew Point 50 °F
Humidity 78%
Rainfall 0.00 in
Snow Depth Not available.
UV 0 out of 12
Pollen Not available.
Air Quality Not available.
Flu Activity Not available.
METAR CYHE 051200Z AUTO 23007KT 9SM SCT180 SCT200 14/10 A2998 RMK SLP153

More Conditions Fewer Conditions

10-Day Weather Forecast

×

Almanac

Astronomy

Aug. 05, 2015 Rise Set
Actual Time
Civil Twilight
Nautical Twilight
Astronomical Twilight
Moon
Length of Visible Light
Length of Day
Tomorrow will be .
, % of the Moon is Illuminated

Today's Extremes

Country Highs Country Lows

Community

WunderPhotos

Upload Photos

1,844,175 photos uploaded!

WunderBlogs® & News

Nearby

Air Quality

  Air Quality AQ Index Pollutant
Not available.

Snow Depth

Station Depth Elevation

Earthquake Activity

City Distance Mag. Time & Date
Minimum magnitude displayed is 2.5.

Coastal Water Temperatures

Place Temperature

Stations

Nearby Weather Stations

Station Location Temp. Windchill Dew Point Humidity Wind Precip. Elev Updated Type